Headquarters, Valles Caldera, New Mexico Weather observations

Data are for 10 minute period ending at time listed.
 Day   Time   Solar   Ave.   Ave.  Ave.  Vector  Max.   Baro.   Total    
  of    of     Rad.   Air    Rel.  Wind   Wind   Wind  Press.  Precip.   
Year   Day            Temp.  Hum.  Speed  Dir.   Gust                    
2016   (MST)  Kw/m2    F      %     mph   deg.    mph    mb.     in.     
-------------------------------------------------------------------------
  43   10:20   0.50   38.4    36    1.6   164     3.6   747.1    0.00 
  43   10:30   0.51   38.7    35    2.4   305     4.2   747.1    0.00 
  43   10:40   0.53   34.3    46    1.3    22     5.4   747.1    0.00 
  43   10:50   0.55   38.2    36    1.6   163     4.2   747.1    0.00 
  43   11:00   0.56   38.3    39    1.6   130     3.6   747.1    0.00 
  43   11:10   0.58   39.6    35    1.3   103     3.6   747.1    0.00 
  43   11:20   0.59   43.6    34    1.0    86     2.4   747.1    0.00 
  43   11:30   0.60   46.5    25    1.9   216     4.2   747.1    0.00 
  43   11:40   0.61   43.9    25    3.0    84     6.6   746.9    0.00 
  43   11:50   0.61   41.6    38    1.3   144     3.0   746.9    0.00 
  43   12:00   0.62   41.3    37    1.8   168     4.8   746.8    0.00 
  43   12:10   0.62   41.0    40    2.5    26     4.2   746.7    0.00 
  43   12:20   0.62   39.5    54    2.1    61     3.0   746.7    0.00 
  43   12:30   0.62   42.1    37    1.2     8     3.6   746.5    0.00 
  43   12:40   0.62   43.0    36    2.2   146     3.6   746.3    0.00 
  43   12:50   0.62   44.4    33    2.7     0     4.2   746.3    0.00 
  43   13:00   0.61   45.6    32    2.4    19     3.6   746.1    0.00 
  43   13:10   0.61   48.5    29    3.2   164     6.0   746.1    0.00 
  43   13:20   0.60   51.3    26    1.7    23     3.0   746.0    0.00 
  43   13:30   0.59   53.6    26    2.0   128     4.2   745.9    0.00 
  43   13:40   0.58   53.8    27    5.7   211    10.8   745.9    0.00 
  43   13:50   0.57   51.6    29    9.8   212    13.7   745.8    0.00 
  43   14:00   0.56   52.5    27    8.0   214    13.1   745.7    0.00 
  43   14:10   0.54   52.6    26    9.2   217    13.7   745.6    0.00 
  43   14:20   0.52   52.1    27    9.3   214    12.5   745.6    0.00 
  43   14:30   0.50   52.1    27   10.1   215    13.7   745.6    0.00 
  43   14:40   0.48   51.4    28    9.5   210    13.7   745.6    0.00 
  43   14:50   0.46   50.3    30   10.4   210    13.7   745.6    0.00 
  43   15:00   0.44   50.2    29   10.4   213    14.9   745.6    0.00 
  43   15:10   0.42   50.8    28   11.0   215    15.5   745.7    0.00 
  43   15:20   0.39   49.7    31   11.0   212    14.9   745.6    0.00 
  43   15:30   0.37   49.7    29   10.7   212    16.1   745.6    0.00 
  43   15:40   0.34   50.4    29    9.5   213    13.7   745.6    0.00 
  43   15:50   0.31   49.8    31   10.4   210    13.7   745.6    0.00 
  43   16:00   0.29   49.5    32    9.0   209    12.5   745.8    0.00 
  43   16:10   0.26   49.7    31    7.1   211    10.8   745.8    0.00 
  43   16:20   0.23   50.3    30    6.9   207    10.8   745.8    0.00 
  43   16:30   0.20   50.1    30    2.5   139     5.4   745.8    0.00 
  43   16:40   0.17   50.9    29    2.8   113     6.0   745.9    0.00 
  43   16:50   0.08   49.8    32    2.0   284     4.8   746.0    0.00 
  43   17:00   0.01   45.8    41    3.3   288     5.4   746.0    0.00 
  43   17:10   0.01   42.1    50    4.3   281     6.0   746.0    0.00 
  43   17:20   0.01   40.8    52    4.3   284     6.0   745.9    0.00 
  43   17:30   0.01   39.9    53    4.0   282     4.8   745.9    0.00 
  43   17:40   0.01   38.9    57    4.5   277     6.0   745.8    0.00 
  43   17:50   0.00   38.1    59    4.4   285     5.4   745.8    0.00 
  43   18:00   0.00   37.2    61    4.4   277     5.4   745.8    0.00 
  43   18:10   0.00   37.0    59    4.4   274     5.4   745.8    0.00 
  43   18:20   0.00   36.8    60    4.0   281     7.2   745.8    0.00 
  43   18:30   0.00   36.1    62    3.9   291     5.4   745.9    0.00 
  43   18:40   0.00   35.9    61    4.4   274     5.4   746.1    0.00 
  43   18:50   0.00   35.4    64    4.2   275     5.4   746.1    0.00 
  43   19:00   0.00   34.7    64    4.0   270     5.4   746.2    0.00 
  43   19:10   0.00   34.7    65    4.4   277     5.4   746.3    0.00 
  43   19:20   0.00   34.3    65    4.4   281     6.0   746.3    0.00 
  43   19:30   0.00   34.0    64    3.7   280     4.2   746.4    0.00 
  43   19:40   0.00   33.8    64    3.5   283     4.2   746.4    0.00 
  43   19:50   0.00   33.5    65    3.6   282     4.8   746.5    0.00 
  43   20:00   0.00   33.4    65    2.9   290     3.6   746.5    0.00 
  43   20:10   0.00   33.4    64    3.0   286     4.2   746.5    0.00 
  43   20:20   0.00   33.1    64    3.3   289     4.2   746.6    0.00 
  43   20:30   0.00   32.6    66    3.7   273     4.2   746.7    0.00 
  43   20:40   0.00   32.2    65    3.6   276     4.2   746.7    0.00 
  43   20:50   0.00   32.1    66    3.5   283     4.8   746.7    0.00 
  43   21:00   0.00   31.9    66    2.2   291     3.6   746.7    0.00 
  43   21:10   0.00   31.8    65    1.1   330     2.4   746.7    0.00 
  43   21:20   0.00   30.6    69    1.8   287     2.4   746.7    0.00 
  43   21:30   0.00   30.6    68    2.4   279     3.6   746.7    0.00 
  43   21:40   0.00   30.5    69    3.0   272     4.2   746.7    0.00 
  43   21:50   0.00   30.2    67    3.4   285     4.2   746.7    0.00 
  43   22:00   0.00   30.3    67    3.1   288     4.2   746.7    0.00 
  43   22:10   0.00   30.6    65    1.4   292     2.4   746.8    0.00 
  43   22:20   0.00   30.6    64    0.7   294     3.0   746.7    0.00 
  43   22:30   0.00   30.1    65    0.5   328     3.0   746.7    0.00 
  43   22:40   0.00   28.5    69    0.9   333     2.4   746.8    0.00 
  43   22:50   0.00   28.1    71    1.9   286     3.6   746.8    0.00 
  43   23:00   0.00   28.1    70    1.8   274     3.0   746.7    0.00 
  43   23:10   0.00   28.1    72    2.4   266     3.6   746.7    0.00 
  43   23:20   0.00   28.2    68    2.2   299     3.0   746.7    0.00 
  43   23:30   0.00   28.4    66    0.3   325     1.8   746.7    0.00 
  43   23:40   0.00   27.1    68    0.7   269     2.4   746.7    0.00 
  43   23:50   0.00   26.8    70    2.2   288     3.0   746.6    0.00 
  44    0:00   0.00   27.1    69    2.3   292     3.6   746.6    0.00 
  44    0:10   0.00   27.8    66    1.4   310     2.4   746.7    0.00 
  44    0:20   0.00   27.4    67    1.9   276     3.0   746.6    0.00 
  44    0:30   0.00   26.8    69    2.6   276     3.6   746.5    0.00 
  44    0:40   0.00   26.4    71    2.9   268     4.2   746.5    0.00 
  44    0:50   0.00   26.8    70    2.4   296     3.6   746.4    0.00 
  44    1:00   0.00   24.9    72    1.8    20     3.6   746.4    0.00 
  44    1:10   0.00   22.4    82    0.3   318     1.2   746.3    0.00 
  44    1:20   0.00   22.7    83    0.1   253     1.2   746.2    0.00 
  44    1:30   0.00   23.6    79    1.5   319     2.4   746.2    0.00 
  44    1:40   0.00   24.6    74    1.5   354     3.6   746.2    0.00 
  44    1:50   0.00   24.9    74    1.4   276     3.0   746.2    0.00 
  44    2:00   0.00   24.9    73    0.8   337     2.4   746.1    0.00 
  44    2:10   0.00   24.4    74    0.2     0     1.2   746.0    0.00 
  44    2:20   0.00   23.8    76    0.5   278     2.4   746.0    0.00 
  44    2:30   0.00   23.6    75    1.8   291     2.4   745.9    0.00 
  44    2:40   0.00   24.2    73    1.3   275     2.4   745.9    0.00 
  44    2:50   0.00   24.0    73    1.1   276     2.4   745.8    0.00 
  44    3:00   0.00   24.4    71    0.6   332     1.8   745.7    0.00 
  44    3:10   0.00   22.6    72    0.6   154     1.8   745.6    0.00 
  44    3:20   0.00   22.2    78    1.4   256     3.0   745.5    0.00 
  44    3:30   0.00   22.7    78    1.8   303     2.4   745.5    0.00 
  44    3:40   0.00   23.2    73    0.3   313     1.8   745.4    0.00 
  44    3:50   0.00   21.8    77    0.6   218     2.4   745.4    0.00 
  44    4:00   0.00   21.5    78    0.4    56     1.8   745.4    0.00 
  44    4:10   0.00   20.8    78    0.3   197     1.8   745.4    0.00 
  44    4:20   0.00   19.9    82    0.4    14     1.8   745.4    0.00 
  44    4:30   0.00   20.2    81    0.6     5     1.8   745.4    0.00 
  44    4:40   0.00   19.6    81    0.0    36     1.2   745.4    0.00 
  44    4:50   0.00   19.2    83    0.3   338     1.8   745.4    0.00 
  44    5:00   0.00   19.3    83    0.4   237     1.8   745.4    0.00 
  44    5:10   0.00   19.6    82    0.4   268     2.4   745.4    0.00 
  44    5:20   0.00   19.0    81    0.6   280     3.0   745.4    0.00 
  44    5:30   0.00   18.8    83    0.7   324     2.4   745.4    0.00 
  44    5:40   0.00   19.0    82    1.3   269     3.6   745.4    0.00 
  44    5:50   0.00   19.8    81    1.1   287     2.4   745.4    0.00 
  44    6:00   0.00   20.0    79    0.7    48     2.4   745.4    0.00 
  44    6:10   0.00   19.7    80    1.0   248     3.0   745.3    0.00 
  44    6:20   0.00   19.3    80    0.9    13     2.4   745.3    0.00 
  44    6:30   0.00   18.3    80    0.9    50     3.0   745.3    0.00 
  44    6:40   0.00   14.6    84    1.2   359     3.0   745.3    0.00 
  44    6:50   0.00   14.7    91    0.6   258     2.4   745.3    0.00 
  44    7:00   0.00   15.7    92    0.8   212     1.8   745.3    0.00 
  44    7:10   0.01   16.4    90    1.2   258     2.4   745.3    0.00 
  44    7:20   0.03   18.8    85    0.6   348     2.4   745.3    0.00 
  44    7:30   0.07   21.3    73    1.6   336     2.4   745.3    0.00 
  44    7:40   0.11   24.0    69    0.3   293     2.4   745.3    0.00 
  44    7:50   0.15   28.2    57    0.2    28     1.8   745.3    0.00 
  44    8:00   0.17   29.6    54    0.1   336     1.2   745.3    0.00 
  44    8:10   0.20   33.4    48    0.7   238     1.8   745.3    0.00 
  44    8:20   0.23   35.6    44    0.8   202     1.8   745.2    0.00 
  44    8:30   0.25   32.4    46    0.7   196     2.4   745.1    0.00 
  44    8:40   0.27   34.2    46    2.7   218     4.2   745.1    0.00 
  44    8:50   0.30   34.3    44    1.5   174     3.0   745.0    0.00 
  44    9:00   0.32   27.5    56    1.1    35     2.4   744.9    0.00 
  44    9:10   0.34   28.9    56    1.3   341     3.6   744.8    0.00 
  44    9:20   0.37   29.8    54    1.2   108     3.0   744.7    0.00 
  44    9:30   0.40   30.0    54    1.5    56     3.0   744.7    0.00 
  44    9:40   0.42   30.2    53    1.3    49     2.4   744.6    0.00 
  44    9:50   0.44   30.7    53    1.4    40     3.6   744.5    0.00 
  44   10:00   0.47   33.6    50    0.6   109     1.8   744.3    0.00 
  44   10:10   0.49   35.0    47    1.1   131     3.6   744.1    0.00 

Return to Headquarters, Valles Caldera graphs page.


Western Regional Climate Center,wrcc@dri.edu